Latest Weather Observations for Rolleston Airport

IDQ60801

Issued at 3:05 pm EST Friday 25 April 2014 (issued every 30 minutes, with the page automatically refreshed every 10 minutes)

About weather observations | Map of weather stations | Latest weather observations for QLD | Other Formats
Station Details ID: 035129 Name: ROLLESTON AIRPORT Lat: -24.46 Lon: 148.63 Height: 219.45 m
Data from the previous 72 hours. | See also: Recent months at Rolleston Airport
Date/Time
EST
Temp
°C
App
Temp
°C
Dew
Point
Rel
Hum
%
Delta-T
°C
Wind Press
QNH
hPa
Press
MSL
hPa
Rain
since 9 am
mm
Dir
 
Spd
km/h
Gust
km/h
Spd
kts
Gust
kts
25/03:00pm 30.2 27.4 6.8 23 12.7 SE 11 20 6 11 1013.8 1012.8 0.0
25/02:30pm 30.7 26.4 7.2 23 12.9 ESE 19 26 10 14 1013.8 - 0.0
25/02:00pm 30.5 29.1 11.0 30 11.3 SW 9 17 5 9 1014.1 1013.1 0.0
25/01:30pm 29.5 28.8 11.5 33 10.5 SE 6 15 3 8 1014.5 - 0.0
25/01:00pm 29.8 29.3 12.7 35 10.2 E 7 17 4 9 1015.0 1014.1 0.0
25/12:30pm 28.7 28.4 12.6 37 9.5 SSE 6 13 3 7 1015.6 - 0.0
25/12:00pm 28.0 27.8 13.1 39 8.8 S 6 17 3 9 1016.2 1015.3 0.0
25/11:30am 27.6 27.9 14.6 45 7.9 SW 6 11 3 6 1016.8 - 0.0
25/11:00am 26.9 28.0 15.6 50 6.9 NNW 4 7 2 4 1017.4 1016.4 0.0
25/10:30am 26.1 27.0 16.1 54 6.2 W 6 7 3 4 1017.8 - 0.0
25/10:00am 24.9 26.1 15.8 57 5.6 SSE 4 7 2 4 1018.3 1017.3 0.0
25/09:30am 23.9 24.4 15.1 58 5.3 SSW 6 7 3 4 1018.6 - 0.0
25/09:00am 22.0 21.7 12.8 56 5.3 S 6 11 3 6 1018.6 1017.6 0.0
25/08:30am 20.0 20.0 11.2 57 4.9 S 2 4 1 2 1018.4 - 0.0
25/08:00am 17.6 16.8 9.8 60 4.1 SSW 4 6 2 3 1018.3 1017.3 0.0
25/07:30am 15.8 14.5 9.2 65 3.4 S 6 7 3 4 1018.1 - 0.0
25/07:00am 14.0 13.5 9.2 73 2.5 S 2 4 1 2 1017.7 1016.7 0.0
25/06:30am 12.8 12.1 8.7 76 2.1 S 2 4 1 2 1017.2 - 0.0
25/06:00am 13.8 12.9 9.3 74 2.3 SSE 4 4 2 2 1016.8 1015.8 0.0
25/05:30am 13.2 12.1 8.5 73 2.4 S 4 6 2 3 1016.7 - 0.0
25/05:00am 12.9 11.2 8.4 74 2.3 SSE 7 7 4 4 1016.3 1015.4 0.0
25/04:30am 14.0 12.9 9.8 76 2.2 SE 6 9 3 5 1016.0 - 0.0
25/04:00am 14.3 13.7 9.1 71 2.7 S 2 4 1 2 1015.8 1014.9 0.0
25/03:30am 14.8 14.7 9.4 70 2.8 CALM 0 0 0 0 1015.7 - 0.0
25/03:00am 13.9 13.6 8.7 71 2.6 CALM 0 0 0 0 1015.8 1014.9 0.0
25/02:30am 14.9 14.4 9.5 70 2.8 SE 2 6 1 3 1015.8 - 0.0
25/02:00am 15.2 15.1 9.3 68 3.1 CALM 0 0 0 0 1015.8 1014.9 0.0
25/01:30am 15.2 14.2 8.9 66 3.3 W 4 7 2 4 1015.6 - 0.0
25/01:00am 15.1 14.6 9.2 68 3.1 WSW 2 7 1 4 1015.9 1015.0 0.0
25/12:30am 16.3 15.3 8.8 61 3.9 N 4 6 2 3 1015.8 - 0.0
25/12:00am 15.8 15.0 8.1 60 3.9 N 2 4 1 2 1015.5 1014.6 0.0
 
Date/Time
EST
Temp
°C
App
Temp
°C
Dew
Point
Rel
Hum
%
Delta-T
°C
Wind Press
QNH
hPa
Press
MSL
hPa
Rain
since 9 am
mm
Dir
 
Spd
km/h
Gust
km/h
Spd
kts
Gust
kts
24/11:30pm 17.7 16.4 9.3 58 4.4 SE 6 7 3 4 1015.6 - 0.0
24/11:00pm 17.3 15.9 8.7 57 4.5 SSE 6 7 3 4 1015.9 1015.0 0.0
24/10:30pm 17.4 16.2 8.0 54 4.8 S 4 6 2 3 1016.1 - 0.0
24/10:00pm 18.5 17.6 7.9 50 5.5 SSW 2 4 1 2 1016.1 1015.2 0.0
24/09:30pm 18.8 17.1 7.6 48 5.8 S 6 6 3 3 1016.0 - 0.0
24/09:00pm 20.4 18.7 7.7 44 6.6 SSE 6 7 3 4 1015.9 1015.0 0.0
24/08:30pm 19.9 18.0 7.6 45 6.4 SSE 7 9 4 5 1015.7 - 0.0
24/08:00pm 19.9 17.8 8.3 47 6.1 SE 9 9 5 5 1015.4 1014.5 0.0
24/07:30pm 21.8 19.4 7.2 39 7.6 ESE 9 9 5 5 1015.0 - 0.0
24/07:00pm 23.0 20.5 6.7 35 8.5 ESE 9 13 5 7 1014.7 1013.8 0.0
24/06:30pm 25.1 22.4 7.3 32 9.5 ESE 11 15 6 8 1014.2 - 0.0
24/06:00pm 25.3 23.0 7.4 32 9.5 ESE 9 13 5 7 1013.9 1012.9 0.0
24/05:30pm 26.3 23.6 7.4 30 10.1 SE 11 15 6 8 1013.6 - 0.0
24/05:00pm 28.5 24.4 7.7 27 11.3 SSE 19 24 10 13 1013.3 1012.3 0.0
24/04:30pm 29.2 26.3 8.3 27 11.6 ESE 13 17 7 9 1013.1 - 0.0
24/04:00pm 29.6 27.7 9.2 28 11.5 SSE 9 26 5 14 1012.9 1011.9 0.0
24/03:30pm 30.0 25.2 9.0 27 11.8 ESE 24 30 13 16 1012.9 - 0.0
24/03:00pm 28.6 25.5 8.8 29 11.0 SSE 15 20 8 11 1013.2 1012.2 0.0
24/02:30pm 29.3 27.6 9.9 30 11.0 SSE 9 19 5 10 1013.4 - 0.0
24/02:00pm 29.1 25.7 9.3 29 11.1 SSE 17 26 9 14 1013.4 1012.4 0.0
24/01:30pm 29.3 27.5 9.4 29 11.2 SSE 9 17 5 9 1013.7 - 0.0
24/01:00pm 29.3 26.1 9.9 30 11.0 SSE 17 33 9 18 1014.4 1013.4 0.0
24/12:30pm 28.6 27.8 12.9 38 9.3 S 9 19 5 10 1014.6 - 0.0
24/12:00pm 28.4 27.4 12.3 37 9.5 S 9 17 5 9 1015.4 1014.5 0.0
24/11:30am 27.4 27.7 15.1 47 7.5 S 7 13 4 7 1016.1 - 0.0
24/11:00am 27.1 27.8 15.5 49 7.1 NE 6 17 3 9 1016.7 1015.7 0.0
24/10:30am 25.6 27.0 15.3 53 6.3 ENE 2 6 1 3 1017.6 - 0.0
24/10:00am 24.8 25.9 15.7 57 5.6 SSW 4 7 2 4 1018.1 1017.1 0.0
24/09:30am 23.4 24.2 14.9 59 5.1 S 4 7 2 4 1018.1 - 0.0
24/09:00am 21.2 21.5 14.4 65 4.0 SSW 6 11 3 6 1018.1 1017.1 0.0
24/08:30am 19.4 19.2 12.9 66 3.7 S 6 9 3 5 1017.9 - 0.0
24/08:00am 17.4 17.3 12.1 71 2.9 S 4 6 2 3 1017.7 1016.7 0.0
24/07:30am 15.8 16.4 11.8 77 2.2 CALM 0 0 0 0 1017.4 - 0.0
24/07:00am 13.1 13.3 10.6 85 1.3 CALM 0 4 0 2 1017.2 1016.2 0.0
24/06:30am 12.9 12.4 10.8 87 1.1 S 4 6 2 3 1016.7 - 0.0
24/06:00am 12.2 11.0 9.6 84 1.3 S 6 7 3 4 1015.8 1014.9 0.0
24/05:30am 12.9 11.7 9.7 81 1.7 S 6 7 3 4 1015.8 - 0.0
24/05:00am 13.3 12.8 10.7 84 1.4 SSE 4 4 2 2 1016.1 1015.2 0.0
24/04:30am 13.3 13.2 10.7 84 1.4 SSE 2 6 1 3 1015.7 - 0.0
24/04:00am 13.2 12.7 10.7 85 1.3 S 4 6 2 3 1015.7 1014.8 0.0
24/03:30am 14.0 14.3 10.8 81 1.7 CALM 0 2 0 1 1015.9 - 0.0
24/03:00am 14.7 14.7 11.1 79 1.9 NE 2 4 1 2 1016.1 1015.2 0.0
24/02:30am 14.9 15.3 11.3 79 1.9 CALM 0 0 0 0 1015.8 - 0.0
24/02:00am 14.8 15.1 11.0 78 2.0 CALM 0 0 0 0 1015.8 1014.9 0.0
24/01:30am 15.1 15.5 11.3 78 2.1 CALM 0 0 0 0 1016.1 - 0.0
24/01:00am 15.1 14.3 11.1 77 2.2 N 6 13 3 7 1016.4 1015.5 0.0
24/12:30am 15.1 14.2 10.7 75 2.4 SSE 6 7 3 4 1016.5 - 0.0
24/12:00am 15.8 16.0 10.6 71 2.8 CALM 0 0 0 0 1016.8 1015.8 0.0
 
Date/Time
EST
Temp
°C
App
Temp
°C
Dew
Point
Rel
Hum
%
Delta-T
°C
Wind Press
QNH
hPa
Press
MSL
hPa
Rain
since 9 am
mm
Dir
 
Spd
km/h
Gust
km/h
Spd
kts
Gust
kts
23/11:30pm 16.6 16.6 11.1 70 3.0 S 2 4 1 2 1017.1 - 0.0
23/11:00pm 16.9 16.5 11.0 68 3.2 SSW 4 6 2 3 1017.2 1016.2 0.0
23/10:30pm 16.8 16.0 10.9 68 3.2 S 6 6 3 3 1017.2 - 0.0
23/10:00pm 18.7 18.5 11.8 64 3.8 SSE 4 7 2 4 1017.4 1016.4 0.0
23/09:30pm 20.2 19.4 11.7 58 4.8 E 7 9 4 5 1017.6 - 0.0
23/09:00pm 21.1 19.6 12.0 56 5.1 ENE 11 11 6 6 1017.4 1016.4 0.0
23/08:30pm 21.3 20.2 11.9 55 5.3 ENE 9 11 5 6 1017.1 - 0.0
23/08:00pm 21.7 20.5 11.7 53 5.6 ENE 9 11 5 6 1016.7 1015.7 0.0
23/07:30pm 22.1 20.6 11.8 52 5.8 ENE 11 13 6 7 1016.3 - 0.0
23/07:00pm 22.6 21.3 11.4 49 6.3 ENE 9 11 5 6 1016.0 1015.1 0.0
23/06:30pm 24.0 22.7 11.3 45 7.2 ENE 9 13 5 7 1015.7 - 0.0
23/06:00pm 24.9 23.4 10.4 40 8.1 E 9 11 5 6 1015.4 1014.5 0.0
23/05:30pm 26.2 25.0 10.4 37 8.9 E 7 9 4 5 1015.0 - 0.0
23/05:00pm 27.5 26.6 10.7 35 9.6 ENE 6 9 3 5 1014.8 1013.9 0.0
23/04:30pm 28.1 26.9 10.3 33 10.1 E 7 9 4 5 1014.7 - 0.0
23/04:00pm 28.4 27.5 11.5 35 9.8 SE 7 13 4 7 1014.6 1013.6 0.0
23/03:30pm 27.6 26.8 11.2 36 9.4 ESE 6 9 3 5 1014.7 - 0.0
23/03:00pm 28.6 27.7 10.8 33 10.2 E 6 17 3 9 1014.8 1013.9 0.0
23/02:30pm 28.3 27.4 12.6 38 9.3 SE 9 15 5 8 1015.1 - 0.0
23/02:00pm 27.9 27.5 12.3 38 9.1 S 6 13 3 7 1015.2 1014.3 0.0
23/01:30pm 28.1 27.6 12.8 38 9.1 ESE 7 13 4 7 1015.5 - 0.0
23/01:00pm 28.2 28.4 14.1 42 8.5 ESE 6 15 3 8 1016.0 1015.1 0.0
23/12:30pm 27.2 26.9 13.2 42 8.3 ESE 7 15 4 8 1016.8 - 0.0
23/12:00pm 26.3 26.7 15.4 51 6.7 S 7 11 4 6 1017.2 1016.2 0.0
23/11:30am 25.9 26.8 15.0 51 6.6 SE 4 7 2 4 1018.0 - 0.0
23/11:00am 25.1 25.4 15.1 53 6.1 ENE 7 13 4 7 1018.4 1017.4 0.0
23/10:30am 25.0 25.6 15.9 57 5.6 E 7 15 4 8 1018.9 - 0.0
23/10:00am 24.1 24.5 16.4 62 4.7 ESE 9 17 5 9 1019.0 1018.1 0.0
23/09:30am 23.3 23.4 16.4 65 4.2 SE 11 15 6 8 1019.2 - 0.0
23/09:00am 22.0 21.9 16.1 69 3.6 SSE 11 15 6 8 1019.3 1018.4 0.0
23/08:30am 18.8 18.8 14.3 75 2.6 S 7 9 4 5 1019.3 - 0.0
23/08:00am 16.8 16.4 13.1 79 2.1 SSE 7 9 4 5 1019.1 1018.2 0.0
23/07:30am 16.1 16.2 12.7 80 1.9 S 4 7 2 4 1019.0 - 0.0
23/07:00am 15.6 15.0 12.2 80 1.9 S 7 7 4 4 1018.6 1017.6 0.0
23/06:30am 15.1 14.3 11.7 80 1.9 S 7 7 4 4 1018.3 - 0.0
23/06:00am 15.4 14.6 11.8 79 2.0 SSE 7 9 4 5 1018.3 1017.3 0.0
23/05:30am 15.7 15.1 12.3 80 1.9 SSE 7 7 4 4 1017.9 - 0.0
23/05:00am 15.3 14.1 11.5 78 2.1 SSE 9 9 5 5 1017.6 1016.6 0.0
23/04:30am 15.8 15.0 11.6 76 2.3 SSE 7 9 4 5 1017.4 - 0.0
23/04:00am 16.0 15.0 12.2 78 2.1 SE 9 9 5 5 1017.7 1016.7 0.0
23/03:30am 16.8 16.3 11.9 73 2.7 SSE 6 7 3 4 1017.6 - 0.0
23/03:00am 17.1 17.7 12.0 72 2.8 CALM 0 0 0 0 1017.8 1016.8 0.0
23/02:30am 17.5 18.1 12.0 70 3.1 CALM 0 0 0 0 1017.6 - 0.0
23/02:00am 17.7 18.2 11.7 68 3.3 CALM 0 0 0 0 1017.8 1016.8 0.0
23/01:30am 17.8 17.5 11.4 66 3.5 SSW 4 4 2 2 1018.0 - 0.0
23/01:00am 18.2 18.0 10.6 61 4.1 SSW 2 4 1 2 1018.1 1017.1 0.0
23/12:30am 19.5 19.1 12.3 63 4.1 N 6 9 3 5 1018.4 - 0.0
23/12:00am 19.1 19.6 11.7 62 4.1 CALM 0 2 0 1 1018.5 1017.5 0.0
 
Date/Time
EST
Temp
°C
App
Temp
°C
Dew
Point
Rel
Hum
%
Delta-T
°C
Wind Press
QNH
hPa
Press
MSL
hPa
Rain
since 9 am
mm
Dir
 
Spd
km/h
Gust
km/h
Spd
kts
Gust
kts
22/11:30pm 19.2 19.7 11.7 62 4.2 CALM 0 4 0 2 1018.6 - 0.0
22/11:00pm 20.9 20.8 13.4 62 4.3 ENE 6 7 3 4 1018.7 1017.8 0.0
22/10:30pm 20.7 20.1 11.6 56 5.1 E 6 7 3 4 1018.5 - 0.0
22/10:00pm 21.3 20.7 12.2 56 5.2 E 7 7 4 4 1018.7 1017.8 0.0
22/09:30pm 20.1 20.7 11.8 59 4.7 CALM 0 0 0 0 1018.8 - 0.0
22/09:00pm 20.7 20.6 10.8 53 5.5 SSE 2 2 1 1 1019.0 1018.1 0.0
22/08:30pm 21.6 21.7 11.6 53 5.6 SE 2 4 1 2 1018.8 - 0.0
22/08:00pm 21.7 21.1 10.5 49 6.2 S 4 4 2 2 1018.7 1017.8 0.0
22/07:30pm 22.9 22.7 10.3 45 7.0 SSW 2 4 1 2 1018.4 - 0.0
22/07:00pm 23.9 23.2 11.3 45 7.1 E 6 9 3 5 1017.9 1016.9 0.0
22/06:30pm 24.3 23.5 10.9 43 7.6 E 6 9 3 5 1017.3 - 0.0
22/06:00pm 25.2 23.8 9.5 37 8.7 E 7 9 4 5 1017.2 1016.2 0.0
22/05:30pm 26.0 24.9 8.5 33 9.5 SSE 4 4 2 2 1016.9 - 0.0
22/05:00pm 27.9 26.9 7.2 27 11.1 N 2 6 1 3 1016.8 1015.8 0.0
22/04:30pm 28.1 27.4 6.8 26 11.4 CALM 0 4 0 2 1016.8 - 0.0
22/04:00pm 28.1 26.0 5.6 24 11.8 SW 6 9 3 5 1016.8 1015.8 0.0
22/03:30pm 28.2 26.0 5.1 23 12.0 SSW 6 11 3 6 1016.8 - 0.0

Other Formats:

Comma delimited format used in spreadsheet applications
http://www.bom.gov.au/fwo/IDQ60801/IDQ60801.94396.axf

JavaScript Object Notation format (JSON) in row-major order
http://www.bom.gov.au/fwo/IDQ60801/IDQ60801.94396.json